Hampton, VA

15:04 EDT le 25 septembre 2016 (GMT -0400)
Langley Air Force Base | | Change Station

Alt. 10 ft 37.08 °N, 76.36 °W | Updated 6 minutes ago

Partly Cloudy
Partiellement nuageux
73 ° F
Paraît 73 ° F
N
10
Vent Variable Vent de NNE

Aujourd'hui
Haut(e) -- | Bas -- ° F
--% Risque de précip.
Hier
Haut(e) -- | Bas -- ° F
Precip. -- pouce
Pression 30.16 pouce
Visibilité 10.0 Miles terrestres
Nuages Peu 6500 ft
Point de rosée 54 ° F
Humidité 52%
Précipitations 0.00 pouce
Profondeur de la couche neigeuse Non disponible.
6:56 AM 6:57 PM
Lune descendante, 25% visible
METAR KLFI 251858Z AUTO 02009KT 10SM FEW065 23/12 A3014 RMK AO2 SLP213 T02270123 $
Pression 30.16 pouce
Visibilité 10.0 Miles terrestres
Nuages Peu 6500 ft
Point de rosée 54 ° F
Humidité 52%
Précipitations 0.00 pouce
Profondeur de la couche neigeuse Non disponible.
6:56 AM 6:57 PM
Lune descendante, 25% visible
METAR KLFI 251858Z AUTO 02009KT 10SM FEW065 23/12 A3014 RMK AO2 SLP213 T02270123 $

10-Day Weather Forecast

Almanac

Astronomie

Sep. 25, 2016 Lever Coucher
Temps réel
Crépuscule civil
Crépuscule nautique
Crépuscule astronomique
Lune
Durée de lumière visible
Longueur du jour
Tomorrow will be .
, % of the Moon is Illuminated

Extrêmes aujourd'hui

State Highs State Lows

Community

WunderPhotos

Upload Photos

1,941,694 Photos téléchargées !

WunderBlog® & News

Nearby

Qualité de l'air

  Qualité de l'air Indice de la qualité de l'air Polluant
Not available.

Épaisseur de neige

Station Depth Altitude

Activité sismique

Ville Distance Mag. Time & Date
Minimum magnitude displayed is 2.5.

Températures des eaux côtières

Lieu Température

Stations

Stations météo à proximité

Emplacement de la station Température Refroidissement éolien Point de rosée Humidité Vent Precip. Alt. Mise à jour Type
                   

Watches & Warnings

There are currently no watches in effect.